»·PEaware :: WAT203 KMRY-KSAN

WAT203 :: KMRY-KSAN

FLIGHT INFORMATION

Flight Status: Arrived
Operator: Unknown
More flights by this operator :: More flights under this callsign
Pilot: Zachary C. (8151)
Aircraft: PILATUS PC-12 EAGLE
(PC12)
More flights by this aircraft type
Origin: KMRY Monterey Peninsula
United States
Destination: KSAN San Diego Intl-Lindbergh
United States
More flights between these airports :: More routes between these airports
Route: MRY5 SHOEY SERFR CALIS LAX COMIX2
File this flight plan on PilotEdge
Remarks: RMK / SIMBRIEF
Altitude:
(Current/Filed)
23,000ft
Speed:
(Current/Filed)
276kts
Departed: 22-May-20 08:09 PM
Arrived: 22-May-20 09:32 PM
Distance/Time
Traveled:
326nm/1:23
Distance/Time
To Go:
Arrived

Flight Plot

Page will automatically refresh every two minutes.


Map Options




Map Legend


Flown Route
Filed Route
Departure Airport
Arrival Airport
Navaid (VOR, NDB)
Fix

Horizontal Profiles

Position Reports

Time Latitude Longitude Heading Altitude Ground
Speed
22-May-20 19:44 36.589497 -121.858521 165 170ft 0kts
22-May-20 19:45 36.589497 -121.858521 165 170ft 0kts
22-May-20 19:46 36.589497 -121.858521 165 170ft 0kts
22-May-20 19:47 36.589497 -121.858521 165 170ft 0kts
22-May-20 19:48 36.589497 -121.858521 165 170ft 0kts
22-May-20 19:49 36.589497 -121.858521 165 170ft 0kts
22-May-20 19:50 36.589497 -121.858521 165 170ft 0kts
22-May-20 19:51 36.589497 -121.858521 165 170ft 0kts
22-May-20 19:52 36.589497 -121.858521 165 170ft 0kts
22-May-20 19:53 36.589497 -121.858521 165 170ft 0kts
22-May-20 19:54 36.589497 -121.858521 165 170ft 0kts
22-May-20 19:55 36.589497 -121.858521 165 170ft 0kts
22-May-20 19:56 36.589497 -121.858521 165 170ft 0kts
22-May-20 19:57 36.589497 -121.858521 165 170ft 0kts
22-May-20 19:58 36.589497 -121.858521 165 170ft 0kts
22-May-20 19:59 36.589497 -121.858521 165 170ft 0kts
22-May-20 20:00 36.589497 -121.858521 165 170ft 0kts
22-May-20 20:01 36.589497 -121.858521 165 170ft 0kts
22-May-20 20:02 36.589497 -121.858521 165 170ft 0kts
22-May-20 20:03 36.589497 -121.858521 165 170ft 0kts
22-May-20 20:04 36.589320 -121.857502 115 170ft 14kts
22-May-20 20:05 36.589888 -121.856008 314 170ft 0kts
22-May-20 20:06 36.590772 -121.855531 109 170ft 0kts
22-May-20 20:07 36.590772 -121.855531 109 170ft 0kts
22-May-20 20:08 36.586812 -121.843644 112 271ft 122kts
22-May-20 20:09 36.590280 -121.800759 6 1652ft 153kts
22-May-20 20:10 36.631333 -121.817548 336 3494ft 167kts
22-May-20 20:11 36.676495 -121.836368 338 5306ft 175kts
22-May-20 20:12 36.689124 -121.877027 206 7171ft 187kts
22-May-20 20:13 36.652426 -121.836476 118 9022ft 201kts
22-May-20 20:14 36.613128 -121.787747 146 10823ft 202kts
22-May-20 20:15 36.566118 -121.749582 149 12626ft 203kts
22-May-20 20:16 36.518241 -121.712151 150 14435ft 204kts
22-May-20 20:17 36.470173 -121.674752 150 16238ft 205kts
22-May-20 20:18 36.420844 -121.636472 150 17853ft 213kts
22-May-20 20:19 36.368959 -121.596324 150 18986ft 241kts
22-May-20 20:20 36.310145 -121.550773 150 20112ft 245kts
22-May-20 20:21 36.253070 -121.506653 151 21527ft 241kts
22-May-20 20:22 36.196363 -121.462917 151 22933ft 241kts
22-May-20 20:23 36.133627 -121.414776 150 23016ft 284kts
22-May-20 20:24 36.064036 -121.362802 157 23001ft 297kts
22-May-20 20:25 35.987292 -121.321212 160 22965ft 300kts
22-May-20 20:26 35.910356 -121.280192 160 22935ft 302kts
22-May-20 20:27 35.832963 -121.238980 160 22914ft 301kts
22-May-20 20:28 35.756036 -121.198108 160 22914ft 301kts
22-May-20 20:29 35.679082 -121.157263 161 22915ft 300kts
22-May-20 20:30 35.602439 -121.116716 161 22916ft 300kts
22-May-20 20:31 35.525804 -121.076259 162 22916ft 298kts
22-May-20 20:32 35.449714 -121.036163 162 22937ft 296kts
22-May-20 20:33 35.389210 -120.966754 127 22961ft 307kts
22-May-20 20:34 35.341246 -120.880420 127 22973ft 306kts
22-May-20 20:35 35.293373 -120.794335 127 22974ft 306kts
22-May-20 20:36 35.245185 -120.707903 127 22975ft 306kts
22-May-20 20:37 35.197141 -120.621922 127 22976ft 310kts
22-May-20 20:38 35.147814 -120.533893 127 22980ft 314kts
22-May-20 20:39 35.098253 -120.445637 127 22989ft 316kts
22-May-20 20:40 35.047897 -120.356443 124 22997ft 320kts
22-May-20 20:41 34.997357 -120.266693 125 22991ft 319kts
22-May-20 20:42 34.947159 -120.177991 125 22990ft 316kts
22-May-20 20:43 34.897438 -120.090345 125 22986ft 313kts
22-May-20 20:44 34.848092 -120.003558 125 22980ft 310kts
22-May-20 20:45 34.798949 -119.917362 125 22971ft 307kts
22-May-20 20:46 34.749810 -119.831367 125 22949ft 309kts
22-May-20 20:47 34.700374 -119.745076 125 22918ft 310kts
22-May-20 20:48 34.650773 -119.658705 125 22918ft 310kts
22-May-20 20:49 34.601159 -119.572519 125 22919ft 310kts
22-May-20 20:50 34.551579 -119.486599 125 22921ft 310kts
22-May-20 20:51 34.501793 -119.400531 125 22928ft 310kts
22-May-20 20:52 34.452778 -119.315984 125 22930ft 310kts
22-May-20 20:53 34.402560 -119.229596 125 22933ft 310kts
22-May-20 20:54 34.352814 -119.144212 125 22930ft 310kts
22-May-20 20:55 34.303096 -119.059076 125 22928ft 310kts
22-May-20 20:56 34.253046 -118.973496 126 22927ft 311kts
22-May-20 20:57 34.202984 -118.888161 126 22931ft 311kts
22-May-20 20:58 34.152853 -118.802932 127 22937ft 311kts
22-May-20 20:59 34.102368 -118.717383 127 22941ft 311kts
22-May-20 21:00 34.052151 -118.632411 127 22941ft 311kts
22-May-20 21:01 34.001616 -118.547093 127 22939ft 311kts
22-May-20 21:02 33.951025 -118.461889 127 22942ft 312kts
22-May-20 21:03 33.895163 -118.382539 135 22946ft 310kts
22-May-20 21:04 33.837332 -118.307728 135 22941ft 309kts
22-May-20 21:05 33.778697 -118.231970 135 22939ft 309kts
22-May-20 21:06 33.720896 -118.156050 135 22939ft 309kts
22-May-20 21:07 33.662747 -118.079756 135 22789ft 314kts
22-May-20 21:08 33.603328 -118.001981 135 21955ft 313kts
22-May-20 21:09 33.544268 -117.925945 138 21188ft 309kts
22-May-20 21:10 33.482166 -117.853718 138 20190ft 311kts
22-May-20 21:11 33.419444 -117.782967 141 19198ft 309kts
22-May-20 21:12 33.355181 -117.714264 141 18019ft 310kts
22-May-20 21:14 33.291046 -117.645841 141 16831ft 308kts
22-May-20 21:15 33.227177 -117.578085 141 15641ft 304kts
22-May-20 21:16 33.164966 -117.512620 141 14217ft 290kts
22-May-20 21:17 33.102660 -117.454716 148 12630ft 279kts
22-May-20 21:18 33.038557 -117.401273 147 11046ft 288kts
22-May-20 21:19 32.974560 -117.347584 148 9578ft 271kts
22-May-20 21:20 32.912944 -117.296008 148 8996ft 270kts
22-May-20 21:21 32.851157 -117.244649 148 7574ft 268kts
22-May-20 21:22 32.804891 -117.181324 107 6782ft 256kts
22-May-20 21:23 32.786758 -117.099472 106 6180ft 260kts
22-May-20 21:24 32.767205 -117.016347 107 5913ft 260kts
22-May-20 21:25 32.732419 -116.953680 172 4631ft 209kts
22-May-20 21:26 32.690489 -116.981088 249 3337ft 168kts
22-May-20 21:27 32.696573 -117.038078 286 2807ft 179kts
22-May-20 21:28 32.710078 -117.092990 286 1784ft 164kts
22-May-20 21:29 32.720567 -117.136075 286 964ft 103kts
22-May-20 21:29 32.726633 -117.161039 285 456ft 88kts
22-May-20 21:31 32.733781 -117.190396 281 21ft 63kts
22-May-20 21:32 32.733541 -117.193858 105 21ft 23kts
22-May-20 21:32 32.731056 -117.191766 98 21ft 8kts
22-May-20 21:34 32.730592 -117.191164 299 21ft 0kts

Navigation Log

Ident Type
Flight plan parsing failed, navigation log unavailable